sensor_id;sensor_type;location;lat;lon;timestamp;P1;durP1;ratioP1;P2;durP2;ratioP2
6527;SDS011;64597;42.664;23.256;2023-03-23T00:34:45;20.30;;;9.95;;
6527;SDS011;64597;42.664;23.256;2023-03-23T00:37:13;23.42;;;9.98;;
6527;SDS011;64597;42.664;23.256;2023-03-23T00:39:41;12.98;;;7.80;;
6527;SDS011;64597;42.664;23.256;2023-03-23T00:42:10;12.05;;;7.15;;
6527;SDS011;64597;42.664;23.256;2023-03-23T00:44:37;14.75;;;7.30;;
6527;SDS011;64597;42.664;23.256;2023-03-23T00:47:03;13.57;;;7.55;;
6527;SDS011;64597;42.664;23.256;2023-03-23T00:49:28;14.65;;;7.60;;
6527;SDS011;64597;42.664;23.256;2023-03-23T00:51:55;16.65;;;8.20;;
6527;SDS011;64597;42.664;23.256;2023-03-23T00:54:22;15.95;;;8.57;;
6527;SDS011;64597;42.664;23.256;2023-03-23T00:56:49;19.75;;;9.32;;
6527;SDS011;64597;42.664;23.256;2023-03-23T00:59:15;17.70;;;8.50;;
6527;SDS011;64597;42.664;23.256;2023-03-23T01:01:41;19.48;;;9.10;;
6527;SDS011;64597;42.664;23.256;2023-03-23T01:04:07;22.35;;;9.65;;
6527;SDS011;64597;42.664;23.256;2023-03-23T01:06:34;16.80;;;9.52;;
6527;SDS011;64597;42.664;23.256;2023-03-23T01:09:04;14.45;;;9.02;;
6527;SDS011;64597;42.664;23.256;2023-03-23T01:11:31;12.40;;;7.78;;
6527;SDS011;64597;42.664;23.256;2023-03-23T01:13:56;12.85;;;6.95;;
6527;SDS011;64597;42.664;23.256;2023-03-23T01:16:23;16.55;;;8.75;;
6527;SDS011;64597;42.664;23.256;2023-03-23T01:18:49;14.05;;;8.07;;
6527;SDS011;64597;42.664;23.256;2023-03-23T01:21:15;16.38;;;8.13;;
6527;SDS011;64597;42.664;23.256;2023-03-23T01:23:42;15.50;;;7.78;;
6527;SDS011;64597;42.664;23.256;2023-03-23T01:26:11;13.45;;;8.07;;
6527;SDS011;64597;42.664;23.256;2023-03-23T01:28:39;16.15;;;8.77;;
6527;SDS011;64597;42.664;23.256;2023-03-23T01:31:09;17.75;;;8.98;;
6527;SDS011;64597;42.664;23.256;2023-03-23T01:33:38;18.35;;;8.05;;
6527;SDS011;64597;42.664;23.256;2023-03-23T01:36:05;17.27;;;8.48;;
6527;SDS011;64597;42.664;23.256;2023-03-23T01:38:33;12.18;;;7.53;;
6527;SDS011;64597;42.664;23.256;2023-03-23T01:41:00;12.80;;;6.63;;
6527;SDS011;64597;42.664;23.256;2023-03-23T01:43:26;10.70;;;6.45;;
6527;SDS011;64597;42.664;23.256;2023-03-23T01:45:52;13.75;;;7.60;;
6527;SDS011;64597;42.664;23.256;2023-03-23T01:48:25;13.35;;;7.25;;
6527;SDS011;64597;42.664;23.256;2023-03-23T01:53:30;11.52;;;6.38;;
6527;SDS011;64597;42.664;23.256;2023-03-23T01:55:59;11.23;;;6.95;;
6527;SDS011;64597;42.664;23.256;2023-03-23T01:58:27;11.52;;;6.70;;
6527;SDS011;64597;42.664;23.256;2023-03-23T02:00:56;12.43;;;8.13;;
6527;SDS011;64597;42.664;23.256;2023-03-23T02:03:25;12.05;;;6.57;;
6527;SDS011;64597;42.664;23.256;2023-03-23T02:05:53;13.73;;;6.68;;
6527;SDS011;64597;42.664;23.256;2023-03-23T02:08:23;9.60;;;7.15;;
6527;SDS011;64597;42.664;23.256;2023-03-23T02:10:51;12.18;;;7.50;;
6527;SDS011;64597;42.664;23.256;2023-03-23T02:13:17;8.77;;;5.72;;
6527;SDS011;64597;42.664;23.256;2023-03-23T02:15:55;11.43;;;7.22;;
6527;SDS011;64597;42.664;23.256;2023-03-23T02:18:47;12.85;;;7.30;;
6527;SDS011;64597;42.664;23.256;2023-03-23T02:35:35;11.15;;;7.38;;
6527;SDS011;64597;42.664;23.256;2023-03-23T02:38:08;16.42;;;7.47;;
6527;SDS011;64597;42.664;23.256;2023-03-23T02:40:46;12.25;;;7.93;;
6527;SDS011;64597;42.664;23.256;2023-03-23T02:43:15;16.23;;;7.60;;
6527;SDS011;64597;42.664;23.256;2023-03-23T02:45:44;13.10;;;7.82;;
6527;SDS011;64597;42.664;23.256;2023-03-23T02:48:10;12.70;;;8.10;;
6527;SDS011;64597;42.664;23.256;2023-03-23T02:50:40;13.82;;;8.23;;
6527;SDS011;64597;42.664;23.256;2023-03-23T02:53:10;13.63;;;7.43;;
6527;SDS011;64597;42.664;23.256;2023-03-23T02:55:38;15.90;;;9.77;;
6527;SDS011;64597;42.664;23.256;2023-03-23T02:58:07;17.85;;;9.48;;
6527;SDS011;64597;42.664;23.256;2023-03-23T03:00:36;15.85;;;9.65;;
6527;SDS011;64597;42.664;23.256;2023-03-23T03:03:03;19.25;;;9.10;;
6527;SDS011;64597;42.664;23.256;2023-03-23T03:08:33;12.25;;;7.00;;
6527;SDS011;64597;42.664;23.256;2023-03-23T03:13:43;16.70;;;8.75;;
6527;SDS011;64597;42.664;23.256;2023-03-23T03:16:31;14.13;;;8.48;;
6527;SDS011;64597;42.664;23.256;2023-03-23T03:19:07;15.73;;;8.18;;
6527;SDS011;64597;42.664;23.256;2023-03-23T03:21:41;11.43;;;7.38;;
6527;SDS011;64597;42.664;23.256;2023-03-23T03:24:10;16.20;;;7.57;;
6527;SDS011;64597;42.664;23.256;2023-03-23T03:26:43;14.48;;;9.13;;
6527;SDS011;64597;42.664;23.256;2023-03-23T03:29:13;20.10;;;10.68;;
6527;SDS011;64597;42.664;23.256;2023-03-23T03:31:42;15.82;;;10.75;;
6527;SDS011;64597;42.664;23.256;2023-03-23T03:34:10;17.42;;;10.40;;
6527;SDS011;64597;42.664;23.256;2023-03-23T03:36:36;13.35;;;9.20;;
6527;SDS011;64597;42.664;23.256;2023-03-23T03:39:07;16.83;;;10.73;;
6527;SDS011;64597;42.664;23.256;2023-03-23T03:41:34;15.75;;;10.05;;
6527;SDS011;64597;42.664;23.256;2023-03-23T03:44:01;16.83;;;9.13;;
6527;SDS011;64597;42.664;23.256;2023-03-23T03:46:27;16.23;;;9.15;;
6527;SDS011;64597;42.664;23.256;2023-03-23T03:48:55;14.80;;;9.05;;
6527;SDS011;64597;42.664;23.256;2023-03-23T03:51:22;15.35;;;9.23;;
6527;SDS011;64597;42.664;23.256;2023-03-23T03:53:47;16.63;;;8.77;;
6527;SDS011;64597;42.664;23.256;2023-03-23T03:56:13;17.70;;;9.15;;
6527;SDS011;64597;42.664;23.256;2023-03-23T03:58:39;16.25;;;10.18;;
6527;SDS011;64597;42.664;23.256;2023-03-23T04:01:07;17.45;;;10.57;;
6527;SDS011;64597;42.664;23.256;2023-03-23T04:03:35;19.95;;;11.07;;
6527;SDS011;64597;42.664;23.256;2023-03-23T04:06:01;24.27;;;11.77;;
6527;SDS011;64597;42.664;23.256;2023-03-23T04:08:32;20.40;;;11.45;;
6527;SDS011;64597;42.664;23.256;2023-03-23T04:10:58;20.20;;;11.82;;
6527;SDS011;64597;42.664;23.256;2023-03-23T04:13:23;24.75;;;13.68;;
6527;SDS011;64597;42.664;23.256;2023-03-23T04:15:49;23.83;;;12.73;;
6527;SDS011;64597;42.664;23.256;2023-03-23T04:18:15;21.42;;;12.15;;
6527;SDS011;64597;42.664;23.256;2023-03-23T04:20:43;22.48;;;13.05;;
6527;SDS011;64597;42.664;23.256;2023-03-23T04:23:12;21.23;;;11.93;;
6527;SDS011;64597;42.664;23.256;2023-03-23T04:25:48;22.77;;;12.30;;
6527;SDS011;64597;42.664;23.256;2023-03-23T04:28:15;24.05;;;12.43;;
6527;SDS011;64597;42.664;23.256;2023-03-23T04:30:43;21.75;;;12.05;;
6527;SDS011;64597;42.664;23.256;2023-03-23T04:33:12;23.23;;;13.48;;
6527;SDS011;64597;42.664;23.256;2023-03-23T04:35:39;22.08;;;12.77;;
6527;SDS011;64597;42.664;23.256;2023-03-23T04:38:06;25.13;;;12.88;;
6527;SDS011;64597;42.664;23.256;2023-03-23T04:40:32;21.92;;;11.93;;
6527;SDS011;64597;42.664;23.256;2023-03-23T04:43:01;21.90;;;10.77;;
6527;SDS011;64597;42.664;23.256;2023-03-23T04:45:30;19.95;;;11.95;;
6527;SDS011;64597;42.664;23.256;2023-03-23T04:47:57;18.13;;;11.20;;
6527;SDS011;64597;42.664;23.256;2023-03-23T04:50:24;18.73;;;9.95;;
6527;SDS011;64597;42.664;23.256;2023-03-23T04:52:52;20.80;;;11.43;;
6527;SDS011;64597;42.664;23.256;2023-03-23T04:55:19;33.20;;;16.08;;
6527;SDS011;64597;42.664;23.256;2023-03-23T04:57:45;33.70;;;15.63;;
6527;SDS011;64597;42.664;23.256;2023-03-23T05:00:12;38.25;;;17.45;;
6527;SDS011;64597;42.664;23.256;2023-03-23T05:02:40;43.25;;;18.92;;
6527;SDS011;64597;42.664;23.256;2023-03-23T05:05:10;34.00;;;16.83;;
6527;SDS011;64597;42.664;23.256;2023-03-23T05:07:38;34.63;;;15.48;;
6527;SDS011;64597;42.664;23.256;2023-03-23T05:10:04;32.47;;;16.00;;
6527;SDS011;64597;42.664;23.256;2023-03-23T05:12:31;23.08;;;12.77;;
6527;SDS011;64597;42.664;23.256;2023-03-23T05:14:56;25.10;;;13.70;;
6527;SDS011;64597;42.664;23.256;2023-03-23T05:17:22;22.48;;;13.63;;
6527;SDS011;64597;42.664;23.256;2023-03-23T05:19:52;24.15;;;12.85;;
6527;SDS011;64597;42.664;23.256;2023-03-23T05:22:18;21.15;;;13.18;;
6527;SDS011;64597;42.664;23.256;2023-03-23T05:24:46;19.27;;;12.48;;
6527;SDS011;64597;42.664;23.256;2023-03-23T05:27:12;22.02;;;13.30;;
6527;SDS011;64597;42.664;23.256;2023-03-23T05:29:37;21.63;;;13.23;;
6527;SDS011;64597;42.664;23.256;2023-03-23T05:32:05;25.88;;;13.20;;
6527;SDS011;64597;42.664;23.256;2023-03-23T05:34:32;26.77;;;13.20;;
6527;SDS011;64597;42.664;23.256;2023-03-23T05:36:59;24.52;;;12.60;;
6527;SDS011;64597;42.664;23.256;2023-03-23T05:39:25;24.10;;;14.07;;
6527;SDS011;64597;42.664;23.256;2023-03-23T05:41:51;25.30;;;14.20;;
6527;SDS011;64597;42.664;23.256;2023-03-23T05:44:17;20.75;;;13.20;;
6527;SDS011;64597;42.664;23.256;2023-03-23T05:46:43;6.78;;;4.03;;
6527;SDS011;64597;42.664;23.256;2023-03-23T05:49:09;16.40;;;9.43;;
6527;SDS011;64597;42.664;23.256;2023-03-23T05:51:34;36.47;;;20.67;;
6527;SDS011;64597;42.664;23.256;2023-03-23T05:54:00;25.63;;;15.93;;
6527;SDS011;64597;42.664;23.256;2023-03-23T05:56:26;19.00;;;12.82;;
6527;SDS011;64597;42.664;23.256;2023-03-23T05:58:55;20.13;;;12.27;;
6527;SDS011;64597;42.664;23.256;2023-03-23T06:01:21;22.85;;;12.73;;
6527;SDS011;64597;42.664;23.256;2023-03-23T06:03:46;21.95;;;13.50;;
6527;SDS011;64597;42.664;23.256;2023-03-23T06:06:14;17.73;;;12.52;;
6527;SDS011;64597;42.664;23.256;2023-03-23T06:08:39;19.33;;;13.43;;
6527;SDS011;64597;42.664;23.256;2023-03-23T06:11:05;22.40;;;12.60;;
6527;SDS011;64597;42.664;23.256;2023-03-23T06:13:31;19.98;;;13.20;;
6527;SDS011;64597;42.664;23.256;2023-03-23T06:15:57;19.08;;;13.77;;
6527;SDS011;64597;42.664;23.256;2023-03-23T06:18:23;26.17;;;14.27;;
6527;SDS011;64597;42.664;23.256;2023-03-23T06:20:49;24.33;;;14.57;;
6527;SDS011;64597;42.664;23.256;2023-03-23T06:23:15;25.90;;;15.00;;
6527;SDS011;64597;42.664;23.256;2023-03-23T06:25:41;23.92;;;13.85;;
6527;SDS011;64597;42.664;23.256;2023-03-23T06:28:07;20.55;;;13.48;;
6527;SDS011;64597;42.664;23.256;2023-03-23T06:30:34;22.25;;;13.40;;
6527;SDS011;64597;42.664;23.256;2023-03-23T06:33:00;21.80;;;14.43;;
6527;SDS011;64597;42.664;23.256;2023-03-23T06:35:27;24.15;;;14.80;;
6527;SDS011;64597;42.664;23.256;2023-03-23T06:37:52;22.65;;;14.13;;
6527;SDS011;64597;42.664;23.256;2023-03-23T06:40:19;21.60;;;13.27;;
6527;SDS011;64597;42.664;23.256;2023-03-23T06:42:44;22.48;;;14.50;;
6527;SDS011;64597;42.664;23.256;2023-03-23T06:45:10;22.30;;;12.50;;
6527;SDS011;64597;42.664;23.256;2023-03-23T06:47:36;21.30;;;13.45;;
6527;SDS011;64597;42.664;23.256;2023-03-23T06:50:01;24.75;;;14.38;;
6527;SDS011;64597;42.664;23.256;2023-03-23T06:52:27;24.58;;;16.17;;
6527;SDS011;64597;42.664;23.256;2023-03-23T06:54:53;21.45;;;12.80;;
6527;SDS011;64597;42.664;23.256;2023-03-23T06:57:19;19.58;;;11.85;;
6527;SDS011;64597;42.664;23.256;2023-03-23T06:59:45;19.75;;;11.70;;
6527;SDS011;64597;42.664;23.256;2023-03-23T07:02:11;23.48;;;11.98;;
6527;SDS011;64597;42.664;23.256;2023-03-23T07:04:38;22.40;;;13.10;;
6527;SDS011;64597;42.664;23.256;2023-03-23T07:07:04;19.90;;;11.57;;
6527;SDS011;64597;42.664;23.256;2023-03-23T07:09:31;15.68;;;10.65;;
6527;SDS011;64597;42.664;23.256;2023-03-23T07:11:57;15.68;;;11.35;;
6527;SDS011;64597;42.664;23.256;2023-03-23T07:14:22;19.27;;;12.02;;
6527;SDS011;64597;42.664;23.256;2023-03-23T07:16:48;18.98;;;12.25;;
6527;SDS011;64597;42.664;23.256;2023-03-23T07:19:14;17.05;;;12.52;;
6527;SDS011;64597;42.664;23.256;2023-03-23T07:21:40;24.38;;;14.65;;
6527;SDS011;64597;42.664;23.256;2023-03-23T07:24:06;20.70;;;13.80;;
6527;SDS011;64597;42.664;23.256;2023-03-23T07:26:36;21.60;;;14.82;;
6527;SDS011;64597;42.664;23.256;2023-03-23T07:29:02;23.02;;;15.45;;
6527;SDS011;64597;42.664;23.256;2023-03-23T07:31:28;24.98;;;16.27;;
6527;SDS011;64597;42.664;23.256;2023-03-23T07:33:53;21.77;;;15.55;;
6527;SDS011;64597;42.664;23.256;2023-03-23T07:36:19;19.75;;;13.50;;
6527;SDS011;64597;42.664;23.256;2023-03-23T07:38:45;27.73;;;17.10;;
6527;SDS011;64597;42.664;23.256;2023-03-23T07:41:10;24.30;;;14.98;;
6527;SDS011;64597;42.664;23.256;2023-03-23T07:43:36;29.27;;;17.88;;
6527;SDS011;64597;42.664;23.256;2023-03-23T07:46:02;21.92;;;15.77;;
6527;SDS011;64597;42.664;23.256;2023-03-23T07:48:27;34.15;;;17.55;;
6527;SDS011;64597;42.664;23.256;2023-03-23T07:50:53;25.27;;;16.08;;
6527;SDS011;64597;42.664;23.256;2023-03-23T07:53:18;21.30;;;15.52;;
6527;SDS011;64597;42.664;23.256;2023-03-23T07:55:44;20.95;;;16.45;;
6527;SDS011;64597;42.664;23.256;2023-03-23T07:58:09;23.75;;;16.52;;
6527;SDS011;64597;42.664;23.256;2023-03-23T08:00:35;21.73;;;16.15;;
6527;SDS011;64597;42.664;23.256;2023-03-23T08:03:00;25.40;;;17.50;;
6527;SDS011;64597;42.664;23.256;2023-03-23T08:05:27;29.73;;;17.17;;
6527;SDS011;64597;42.664;23.256;2023-03-23T08:07:53;19.85;;;16.52;;
6527;SDS011;64597;42.664;23.256;2023-03-23T08:10:19;26.08;;;16.23;;
6527;SDS011;64597;42.664;23.256;2023-03-23T08:12:50;25.38;;;16.27;;
6527;SDS011;64597;42.664;23.256;2023-03-23T08:15:17;23.92;;;15.10;;
6527;SDS011;64597;42.664;23.256;2023-03-23T08:17:44;22.90;;;15.57;;
6527;SDS011;64597;42.664;23.256;2023-03-23T08:20:10;21.48;;;15.57;;
6527;SDS011;64597;42.664;23.256;2023-03-23T08:22:41;16.70;;;13.00;;
6527;SDS011;64597;42.664;23.256;2023-03-23T08:25:10;19.02;;;13.50;;
6527;SDS011;64597;42.664;23.256;2023-03-23T08:27:40;18.42;;;14.00;;
6527;SDS011;64597;42.664;23.256;2023-03-23T08:30:09;18.88;;;13.23;;
6527;SDS011;64597;42.664;23.256;2023-03-23T08:32:40;19.50;;;14.13;;
6527;SDS011;64597;42.664;23.256;2023-03-23T08:35:07;17.42;;;12.20;;
6527;SDS011;64597;42.664;23.256;2023-03-23T08:37:34;17.88;;;11.80;;
6527;SDS011;64597;42.664;23.256;2023-03-23T08:40:00;16.05;;;10.27;;
6527;SDS011;64597;42.664;23.256;2023-03-23T08:42:32;15.48;;;11.63;;
6527;SDS011;64597;42.664;23.256;2023-03-23T08:44:58;14.65;;;9.88;;
6527;SDS011;64597;42.664;23.256;2023-03-23T08:47:24;11.88;;;8.32;;
6527;SDS011;64597;42.664;23.256;2023-03-23T08:49:50;14.32;;;8.00;;
6527;SDS011;64597;42.664;23.256;2023-03-23T08:52:19;14.32;;;9.60;;
6527;SDS011;64597;42.664;23.256;2023-03-23T08:54:56;7.85;;;7.00;;
6527;SDS011;64597;42.664;23.256;2023-03-23T08:57:22;9.35;;;6.97;;
6527;SDS011;64597;42.664;23.256;2023-03-23T08:59:48;9.57;;;6.72;;
6527;SDS011;64597;42.664;23.256;2023-03-23T09:02:13;8.70;;;6.93;;
6527;SDS011;64597;42.664;23.256;2023-03-23T09:04:39;7.47;;;5.82;;
6527;SDS011;64597;42.664;23.256;2023-03-23T09:07:08;11.48;;;7.85;;
6527;SDS011;64597;42.664;23.256;2023-03-23T09:09:35;7.97;;;5.85;;
6527;SDS011;64597;42.664;23.256;2023-03-23T09:12:02;9.75;;;6.40;;
6527;SDS011;64597;42.664;23.256;2023-03-23T09:14:27;9.27;;;6.53;;
6527;SDS011;64597;42.664;23.256;2023-03-23T09:16:53;9.52;;;7.00;;
6527;SDS011;64597;42.664;23.256;2023-03-23T09:19:18;10.70;;;7.47;;
6527;SDS011;64597;42.664;23.256;2023-03-23T09:21:45;10.90;;;7.68;;
6527;SDS011;64597;42.664;23.256;2023-03-23T09:24:10;9.20;;;6.72;;
6527;SDS011;64597;42.664;23.256;2023-03-23T09:26:36;8.45;;;6.38;;
6527;SDS011;64597;42.664;23.256;2023-03-23T09:29:02;10.75;;;7.00;;
6527;SDS011;64597;42.664;23.256;2023-03-23T09:31:28;8.25;;;6.45;;
6527;SDS011;64597;42.664;23.256;2023-03-23T09:33:57;8.13;;;6.40;;
6527;SDS011;64597;42.664;23.256;2023-03-23T09:36:24;8.10;;;6.55;;
6527;SDS011;64597;42.664;23.256;2023-03-23T09:38:51;11.15;;;6.65;;
6527;SDS011;64597;42.664;23.256;2023-03-23T09:49:37;7.10;;;5.03;;
6527;SDS011;64597;42.664;23.256;2023-03-23T09:52:17;6.93;;;5.40;;
6527;SDS011;64597;42.664;23.256;2023-03-23T09:54:48;6.20;;;5.50;;
6527;SDS011;64597;42.664;23.256;2023-03-23T10:05:34;9.82;;;6.40;;
6527;SDS011;64597;42.664;23.256;2023-03-23T10:08:05;10.93;;;7.22;;
6527;SDS011;64597;42.664;23.256;2023-03-23T10:18:41;8.30;;;5.50;;
6527;SDS011;64597;42.664;23.256;2023-03-23T10:21:16;8.02;;;6.30;;
6527;SDS011;64597;42.664;23.256;2023-03-23T10:28:54;7.82;;;6.38;;
6527;SDS011;64597;42.664;23.256;2023-03-23T10:31:27;8.35;;;5.35;;
6527;SDS011;64597;42.664;23.256;2023-03-23T10:34:07;7.78;;;5.10;;
6527;SDS011;64597;42.664;23.256;2023-03-23T10:36:38;6.72;;;5.03;;
6527;SDS011;64597;42.664;23.256;2023-03-23T10:39:19;8.27;;;5.65;;
6527;SDS011;64597;42.664;23.256;2023-03-23T10:41:47;10.75;;;6.30;;
6527;SDS011;64597;42.664;23.256;2023-03-23T10:46:59;7.68;;;5.97;;
6527;SDS011;64597;42.664;23.256;2023-03-23T10:49:34;11.77;;;5.53;;
6527;SDS011;64597;42.664;23.256;2023-03-23T10:57:38;7.22;;;4.82;;
6527;SDS011;64597;42.664;23.256;2023-03-23T11:02:37;8.40;;;4.95;;
6527;SDS011;64597;42.664;23.256;2023-03-23T11:05:13;8.90;;;5.80;;
6527;SDS011;64597;42.664;23.256;2023-03-23T11:07:40;5.63;;;4.22;;
6527;SDS011;64597;42.664;23.256;2023-03-23T11:10:11;7.00;;;4.55;;
6527;SDS011;64597;42.664;23.256;2023-03-23T11:12:45;7.20;;;4.90;;
6527;SDS011;64597;42.664;23.256;2023-03-23T11:15:27;8.45;;;5.82;;
6527;SDS011;64597;42.664;23.256;2023-03-23T11:18:00;6.90;;;5.40;;
6527;SDS011;64597;42.664;23.256;2023-03-23T11:20:33;7.47;;;5.53;;
6527;SDS011;64597;42.664;23.256;2023-03-23T11:23:07;9.48;;;5.40;;
6527;SDS011;64597;42.664;23.256;2023-03-23T11:31:29;7.32;;;5.30;;
6527;SDS011;64597;42.664;23.256;2023-03-23T11:33:59;7.25;;;5.15;;
6527;SDS011;64597;42.664;23.256;2023-03-23T11:36:34;7.85;;;4.97;;
6527;SDS011;64597;42.664;23.256;2023-03-23T11:39:02;7.95;;;5.03;;
6527;SDS011;64597;42.664;23.256;2023-03-23T11:41:43;7.97;;;4.85;;
6527;SDS011;64597;42.664;23.256;2023-03-23T11:44:10;5.70;;;4.55;;
6527;SDS011;64597;42.664;23.256;2023-03-23T11:49:27;6.97;;;5.15;;
6527;SDS011;64597;42.664;23.256;2023-03-23T11:52:05;6.55;;;4.57;;
6527;SDS011;64597;42.664;23.256;2023-03-23T11:55:03;6.93;;;4.88;;
6527;SDS011;64597;42.664;23.256;2023-03-23T11:57:37;9.57;;;5.35;;
6527;SDS011;64597;42.664;23.256;2023-03-23T12:00:13;8.18;;;5.30;;
6527;SDS011;64597;42.664;23.256;2023-03-23T12:11:16;7.32;;;5.47;;
6527;SDS011;64597;42.664;23.256;2023-03-23T12:27:01;9.10;;;5.32;;
6527;SDS011;64597;42.664;23.256;2023-03-23T12:43:04;10.50;;;5.57;;
6527;SDS011;64597;42.664;23.256;2023-03-23T12:48:52;7.50;;;5.10;;
6527;SDS011;64597;42.664;23.256;2023-03-23T12:56:27;6.88;;;4.53;;
6527;SDS011;64597;42.664;23.256;2023-03-23T12:58:58;4.90;;;4.13;;
6527;SDS011;64597;42.664;23.256;2023-03-23T13:01:31;5.00;;;4.43;;
6527;SDS011;64597;42.664;23.256;2023-03-23T13:04:03;6.10;;;4.43;;
6527;SDS011;64597;42.664;23.256;2023-03-23T13:09:16;6.22;;;4.22;;
6527;SDS011;64597;42.664;23.256;2023-03-23T13:12:01;6.18;;;4.57;;
6527;SDS011;64597;42.664;23.256;2023-03-23T13:14:39;5.38;;;4.20;;
6527;SDS011;64597;42.664;23.256;2023-03-23T13:26:09;6.63;;;4.63;;
6527;SDS011;64597;42.664;23.256;2023-03-23T13:28:49;6.68;;;4.13;;
6527;SDS011;64597;42.664;23.256;2023-03-23T13:31:34;6.38;;;4.40;;
6527;SDS011;64597;42.664;23.256;2023-03-23T13:41:59;8.43;;;4.05;;
6527;SDS011;64597;42.664;23.256;2023-03-23T13:44:25;6.40;;;4.07;;
6527;SDS011;64597;42.664;23.256;2023-03-23T13:46:56;5.40;;;3.72;;
6527;SDS011;64597;42.664;23.256;2023-03-23T13:49:29;4.78;;;4.22;;
6527;SDS011;64597;42.664;23.256;2023-03-23T13:52:06;3.90;;;3.55;;
6527;SDS011;64597;42.664;23.256;2023-03-23T13:54:43;5.68;;;3.63;;
6527;SDS011;64597;42.664;23.256;2023-03-23T13:59:54;5.55;;;4.32;;
6527;SDS011;64597;42.664;23.256;2023-03-23T14:07:58;6.45;;;4.68;;
6527;SDS011;64597;42.664;23.256;2023-03-23T14:10:31;5.75;;;4.53;;
6527;SDS011;64597;42.664;23.256;2023-03-23T14:13:10;6.28;;;4.07;;
6527;SDS011;64597;42.664;23.256;2023-03-23T14:15:53;5.85;;;4.53;;
6527;SDS011;64597;42.664;23.256;2023-03-23T14:18:21;5.10;;;4.32;;
6527;SDS011;64597;42.664;23.256;2023-03-23T14:20:51;5.70;;;3.75;;
6527;SDS011;64597;42.664;23.256;2023-03-23T14:23:17;6.18;;;3.90;;
6527;SDS011;64597;42.664;23.256;2023-03-23T14:25:43;5.35;;;3.72;;
6527;SDS011;64597;42.664;23.256;2023-03-23T14:28:16;5.55;;;4.05;;
6527;SDS011;64597;42.664;23.256;2023-03-23T14:30:47;4.72;;;3.90;;
6527;SDS011;64597;42.664;23.256;2023-03-23T14:33:17;5.00;;;3.85;;
6527;SDS011;64597;42.664;23.256;2023-03-23T14:35:45;5.38;;;4.10;;
6527;SDS011;64597;42.664;23.256;2023-03-23T14:38:16;6.70;;;4.45;;
6527;SDS011;64597;42.664;23.256;2023-03-23T14:40:45;6.45;;;3.90;;
6527;SDS011;64597;42.664;23.256;2023-03-23T14:43:12;6.43;;;4.25;;
6527;SDS011;64597;42.664;23.256;2023-03-23T14:45:41;8.27;;;4.53;;
6527;SDS011;64597;42.664;23.256;2023-03-23T14:48:06;5.68;;;4.20;;
6527;SDS011;64597;42.664;23.256;2023-03-23T14:50:40;9.32;;;4.88;;
6527;SDS011;64597;42.664;23.256;2023-03-23T14:53:24;6.70;;;4.07;;
6527;SDS011;64597;42.664;23.256;2023-03-23T14:55:54;4.43;;;3.67;;
6527;SDS011;64597;42.664;23.256;2023-03-23T14:58:22;6.07;;;4.18;;
6527;SDS011;64597;42.664;23.256;2023-03-23T15:01:03;6.07;;;3.92;;
6527;SDS011;64597;42.664;23.256;2023-03-23T15:03:35;8.48;;;5.07;;
6527;SDS011;64597;42.664;23.256;2023-03-23T15:06:06;7.60;;;4.43;;
6527;SDS011;64597;42.664;23.256;2023-03-23T15:08:36;6.60;;;4.65;;
6527;SDS011;64597;42.664;23.256;2023-03-23T15:13:44;5.18;;;4.38;;
6527;SDS011;64597;42.664;23.256;2023-03-23T15:16:20;6.57;;;4.13;;
6527;SDS011;64597;42.664;23.256;2023-03-23T15:18:59;9.75;;;5.00;;
6527;SDS011;64597;42.664;23.256;2023-03-23T15:21:34;8.48;;;4.65;;
6527;SDS011;64597;42.664;23.256;2023-03-23T15:32:22;8.15;;;4.75;;
6527;SDS011;64597;42.664;23.256;2023-03-23T15:35:09;8.50;;;5.65;;
6527;SDS011;64597;42.664;23.256;2023-03-23T15:37:41;7.47;;;4.55;;
6527;SDS011;64597;42.664;23.256;2023-03-23T15:40:16;11.10;;;4.72;;
6527;SDS011;64597;42.664;23.256;2023-03-23T15:42:43;6.47;;;3.88;;
6527;SDS011;64597;42.664;23.256;2023-03-23T15:52:40;5.95;;;4.47;;
6527;SDS011;64597;42.664;23.256;2023-03-23T15:55:21;8.02;;;5.18;;
6527;SDS011;64597;42.664;23.256;2023-03-23T15:57:49;6.00;;;4.40;;
6527;SDS011;64597;42.664;23.256;2023-03-23T16:00:16;10.15;;;5.05;;
6527;SDS011;64597;42.664;23.256;2023-03-23T16:02:44;6.30;;;4.18;;
6527;SDS011;64597;42.664;23.256;2023-03-23T16:05:11;6.93;;;4.97;;
6527;SDS011;64597;42.664;23.256;2023-03-23T16:07:37;12.48;;;5.70;;
6527;SDS011;64597;42.664;23.256;2023-03-23T16:10:04;6.38;;;5.05;;
6527;SDS011;64597;42.664;23.256;2023-03-23T16:12:30;7.22;;;4.28;;
6527;SDS011;64597;42.664;23.256;2023-03-23T16:14:56;8.43;;;4.65;;
6527;SDS011;64597;42.664;23.256;2023-03-23T16:17:21;9.63;;;5.20;;
6527;SDS011;64597;42.664;23.256;2023-03-23T16:19:47;9.20;;;4.90;;
6527;SDS011;64597;42.664;23.256;2023-03-23T16:22:12;8.07;;;5.88;;
6527;SDS011;64597;42.664;23.256;2023-03-23T16:24:38;9.93;;;6.03;;
6527;SDS011;64597;42.664;23.256;2023-03-23T16:27:03;6.60;;;5.15;;
6527;SDS011;64597;42.664;23.256;2023-03-23T16:29:29;15.23;;;7.28;;
6527;SDS011;64597;42.664;23.256;2023-03-23T16:31:55;8.82;;;5.75;;
6527;SDS011;64597;42.664;23.256;2023-03-23T16:34:21;17.45;;;8.55;;
6527;SDS011;64597;42.664;23.256;2023-03-23T16:36:47;19.33;;;10.85;;
6527;SDS011;64597;42.664;23.256;2023-03-23T16:39:12;20.73;;;11.30;;
6527;SDS011;64597;42.664;23.256;2023-03-23T16:41:39;13.00;;;9.00;;
6527;SDS011;64597;42.664;23.256;2023-03-23T16:44:06;11.52;;;7.28;;
6527;SDS011;64597;42.664;23.256;2023-03-23T16:46:31;8.85;;;6.05;;
6527;SDS011;64597;42.664;23.256;2023-03-23T16:48:57;12.05;;;6.75;;
6527;SDS011;64597;42.664;23.256;2023-03-23T16:51:22;13.75;;;8.55;;
6527;SDS011;64597;42.664;23.256;2023-03-23T16:53:48;10.45;;;6.93;;
6527;SDS011;64597;42.664;23.256;2023-03-23T16:56:13;11.65;;;6.28;;
6527;SDS011;64597;42.664;23.256;2023-03-23T16:58:39;8.15;;;5.30;;
6527;SDS011;64597;42.664;23.256;2023-03-23T17:01:06;13.60;;;6.32;;
6527;SDS011;64597;42.664;23.256;2023-03-23T17:03:31;14.50;;;7.75;;
6527;SDS011;64597;42.664;23.256;2023-03-23T17:05:58;14.50;;;5.82;;
6527;SDS011;64597;42.664;23.256;2023-03-23T17:08:25;7.80;;;5.22;;
6527;SDS011;64597;42.664;23.256;2023-03-23T17:10:51;8.10;;;5.47;;
6527;SDS011;64597;42.664;23.256;2023-03-23T17:13:20;10.25;;;4.97;;
6527;SDS011;64597;42.664;23.256;2023-03-23T17:15:45;9.32;;;4.88;;
6527;SDS011;64597;42.664;23.256;2023-03-23T17:18:11;11.07;;;5.18;;
6527;SDS011;64597;42.664;23.256;2023-03-23T17:20:37;9.70;;;5.35;;
6527;SDS011;64597;42.664;23.256;2023-03-23T17:23:03;15.63;;;7.05;;
6527;SDS011;64597;42.664;23.256;2023-03-23T17:25:29;16.40;;;7.38;;
6527;SDS011;64597;42.664;23.256;2023-03-23T17:27:56;12.07;;;8.48;;
6527;SDS011;64597;42.664;23.256;2023-03-23T17:30:21;19.08;;;9.32;;
6527;SDS011;64597;42.664;23.256;2023-03-23T17:32:47;15.77;;;10.02;;
6527;SDS011;64597;42.664;23.256;2023-03-23T17:35:13;11.40;;;8.05;;
6527;SDS011;64597;42.664;23.256;2023-03-23T17:37:39;15.57;;;9.88;;
6527;SDS011;64597;42.664;23.256;2023-03-23T17:40:05;12.50;;;7.60;;
6527;SDS011;64597;42.664;23.256;2023-03-23T17:42:34;20.83;;;10.55;;
6527;SDS011;64597;42.664;23.256;2023-03-23T17:45:00;16.33;;;9.55;;
6527;SDS011;64597;42.664;23.256;2023-03-23T17:47:26;15.50;;;10.98;;
6527;SDS011;64597;42.664;23.256;2023-03-23T17:49:51;18.77;;;10.55;;
6527;SDS011;64597;42.664;23.256;2023-03-23T17:52:17;19.98;;;12.15;;
6527;SDS011;64597;42.664;23.256;2023-03-23T17:54:42;28.98;;;13.30;;
6527;SDS011;64597;42.664;23.256;2023-03-23T17:57:08;23.25;;;11.88;;